• Join FlightAware (Why Join?)
  • Login
  • US Flag 
06:08AM EDT


 

Airport Tracker/Info


-or-


 

Live Flight TrackerFlight Track Log ✈ AWE4087 ✈ 05-May-2013 ✈ KMHT - KDCA

Flight Track Log - Related Links

Times and Time Zones

All times are in EDT time to prevent confusion due to time zone crossing. See the AWE4087 flight status page for this flight to view local times or setup timezone preferences in your user account.

Time Position Orientation Groundspeed Altitude Reporting Facility
EDT Latitude Longitude Course Direction KTS MPH feet Rate Location/Type
06:00AM 42.9500 -71.4167 202° Southwest 142 163 1,100  Level KA90
06:01AM 43.0000 -71.3869 23° Northeast 196 226 4,300 2,160 Climbing Boston Center
06:02AM 43.0222 -71.3097 68° East 214 246 5,800 1,920 Climbing Boston Center
06:03AM 43.0411 -71.1178 56° Northeast  Level FlightAware Approximate
06:03AM 43.0400 -71.2158 75° East 235 270 8,200  Level Boston Center
06:04AM 43.0775 -71.0068 71° East  Level FlightAware Approximate
06:05AM 43.0325 -70.9158 144° Southeast  Level FlightAware Approximate
06:05AM 43.0656 -71.0958 74° East 261 300 10,000  Level Boston Center
06:06AM 42.9571 -70.8813 202° Southwest  Level FlightAware Approximate
06:06AM 43.0533 -70.9542 97° East 267 307 10,100  Level Boston Center
06:07AM 42.9881 -70.9017 150° Southeast 285 328 12,700 2,700 Climbing Boston Center
06:08AM 42.8928 -70.9297 192° South 285 328 15,500 2,400 Climbing Boston Center
06:09AM 42.8119 -70.9683 199° South 318 366 17,600 1,680 Climbing Boston Center
06:10AM 42.7208 -71.0131 200° South 342 394 18,900 1,680 Climbing Boston Center
06:11AM 42.6192 -71.0633 200° South 354 407 21,000 1,800 Climbing Boston Center
06:12AM 42.5239 -71.1103 200° South 360 414 22,500 1,440 Climbing Boston Center
06:13AM 42.4267 -71.1689 204° Southwest 371 427 23,900 1,200 Climbing Boston Center
06:14AM 42.3781 -71.2992 243° Southwest 359 413 25,000 1,260 Climbing Boston Center
06:15AM 42.3375 -71.4375 248° West 380 437 26,500 1,500 Climbing Boston Center
06:16AM 42.2908 -71.5728 245° Southwest 385 443 28,000 720 Climbing Boston Center
06:17AM 42.2500 -71.7081 248° West 396 456 28,000  Level Boston Center
06:18AM 42.2072 -71.8486 248° West 396 456 28,000  Level Boston Center
06:19AM 42.1619 -71.9836 246° West 396 456 28,000  Level Boston Center
06:20AM 42.1103 -72.1547 248° West 401 461 28,000  Level Boston Center
06:21AM 42.0647 -72.3003 247° West 406 467 28,000  Level Boston Center
06:22AM 42.0211 -72.4372 247° West 411 473 28,000  Level Boston Center
06:23AM 41.9753 -72.5825 247° West 416 479 28,000  Level Boston Center
06:24AM 41.9269 -72.7053 242° Southwest 416 479 28,000  Level Boston Center
06:25AM 41.8475 -72.8164 226° Southwest 410 472 28,000  Level Boston Center
06:26AM 41.7553 -72.9467 227° Southwest 430 495 28,000  Level Boston Center
06:28AM 41.6064 -73.1433 225° Southwest 430 495 28,000  Level New York Center
06:29AM 41.5250 -73.2542 226° Southwest 420 483 28,000  Level New York Center
06:30AM 41.4433 -73.3672 226° Southwest 420 483 28,000  Level New York Center
06:31AM 41.3617 -73.4775 225° Southwest 420 483 28,000  Level New York Center
06:32AM 41.2800 -73.5872 225° Southwest 425 489 28,000  Level New York Center
06:33AM 41.2083 -73.7111 232° Southwest 425 489 28,000  Level New York Center
06:34AM 41.1344 -73.8344 232° Southwest 425 489 28,000  Level New York Center
06:35AM 41.0603 -73.9578 231° Southwest 425 489 28,000  Level New York Center
06:36AM 40.9883 -74.0781 232° Southwest 430 495 28,000  Level New York Center
06:37AM 40.9314 -74.1742 232° Southwest 430 495 28,000  Level New York Center
06:38AM 40.8483 -74.3044 230° Southwest 430 495 28,000  Level New York Center
06:39AM 40.7739 -74.4264 231° Southwest 430 495 28,000  Level New York Center
06:40AM 40.6989 -74.5511 232° Southwest 430 495 28,000 -180 Level New York Center
06:41AM 40.6264 -74.6728 232° Southwest 430 495 27,700 -960 Descending New York Center
06:42AM 40.5494 -74.7886 229° Southwest 430 495 26,200 -1,620 Descending New York Center
06:43AM 40.4750 -74.8961 228° Southwest 416 479 24,600 -1,620 Descending New York Center
06:44AM 40.4025 -75.0008 228° Southwest 402 463 23,100 -1,500 Descending New York Center
06:45AM 40.3278 -75.1025 226° Southwest 397 457 21,600 -1,500 Descending New York Center
06:46AM 40.2639 -75.1964 228° Southwest 383 441 20,100 -840 Descending New York Center
06:47AM 40.1981 -75.2872 227° Southwest 359 413 20,000 -60 Descending New York Center
06:48AM 40.1336 -75.3864 230° Southwest 359 413 20,000  Level New York Center
06:49AM 40.0694 -75.4850 230° Southwest 359 413 20,000  Level New York Center
06:50AM 40.0092 -75.5814 231° Southwest 359 413 20,000  Level New York Center
06:51AM 39.9447 -75.6772 229° Southwest 359 413 20,000  Level New York Center
06:52AM 39.8803 -75.7728 229° Southwest 359 413 20,000  Level New York Center
06:53AM 39.8178 -75.8708 230° Southwest 359 413 20,000 -120 Level New York Center
06:55AM 39.7000 -76.0333 227° Southwest 356 410 19,700 -720 Descending Potomac TRACON
06:56AM 39.6333 -76.1333 229° Southwest 336 387 18,200 -1,320 Descending Potomac TRACON
06:57AM 39.5833 -76.2167 232° Southwest 340 391 17,100 -1,260 Descending Potomac TRACON
06:58AM 39.5167 -76.3167 229° Southwest 328 377 15,700 -1,680 Descending Potomac TRACON
06:59AM 39.4667 -76.4000 232° Southwest 320 368 14,000 -2,040 Descending Potomac TRACON
07:00AM 39.4000 -76.4667 218° Southwest 308 354 11,900 -1,800 Descending Potomac TRACON
07:01AM 39.3333 -76.5333 218° Southwest 303 349 10,400 -960 Descending Potomac TRACON
07:02AM 39.2667 -76.5833 210° Southwest 299 344 10,000 -240 Descending Potomac TRACON
07:02AM 39.2000 -76.6333 210° Southwest 301 346 10,000  Level Potomac TRACON
07:03AM 39.1333 -76.7000 218° Southwest 302 348 10,000  Level Potomac TRACON
07:04AM 39.0833 -76.7667 226° Southwest 298 343 10,000 -660 Level Potomac TRACON
07:05AM 39.0167 -76.8333 218° Southwest 291 335 8,800 -1,740 Descending Potomac TRACON
07:06AM 38.9667 -76.9000 226° Southwest 282 325 6,800 -2,100 Descending Potomac TRACON
07:07AM 38.9000 -76.9500 210° Southwest 269 310 4,700 -2,100 Descending Potomac TRACON
07:08AM 38.8333 -76.9500 180° South 260 299 2,600 -1,440 Descending Potomac TRACON
07:09AM 38.7667 -76.9500 180° South 213 245 2,000 -540 Descending Potomac TRACON
07:10AM 38.7667 -77.0167 270° West 194 223 1,600 -480 Descending Potomac TRACON
07:11AM 38.8000 -77.0333 339° North 141 162 1,100 -720 Descending Potomac TRACON
07:12AM 38.8333 -77.0333 360° North 130 150 300 -840 Descending Potomac TRACON